Flight Track Log - Related Links

Times and Time Zones

All times are in EDT time to prevent confusion due to time zone crossing. See the AFL150 flight status page for this flight to view local times or setup timezone preferences in your user account.

Time Position Orientation Groundspeed Altitude Reporting Facility
EDT Latitude Longitude Course Direction KTS MPH feet Rate Location/Type
Sat 06:22:00 AM 56.0845 37.3620 317° Northwest  Level FlightAware Approximate
Sat 06:22:38 AM 56.0223 37.7310 48° Northeast 278 320 5,100  Level FlightAware ADS-B
Sat 06:22:56 AM 56.0407 37.7527 28° Northeast 277 319 5,700 2,323 Climbing FlightAware ADS-B
Sat 06:23:09 AM 56.0578 37.7555 355° North 276 318 6,300 2,357 Climbing FlightAware ADS-B
Sat 06:23:24 AM 56.0728 37.7468 325° Northwest 278 320 6,800 2,400 Climbing FlightAware ADS-B
Sat 06:23:39 AM 56.0887 37.7180 298° West 277 319 7,500 2,516 Climbing FlightAware ADS-B
Sat 06:23:55 AM 56.0935 37.6869 276° West 278 320 8,100 2,426 Climbing FlightAware ADS-B
Sat 06:24:26 AM 56.0839 37.6145 251° West 281 323 9,400 2,261 Climbing FlightAware ADS-B
Sat 06:25:04 AM 56.0711 37.5379 257° West 300 345 10,700 1,600 Climbing FlightAware ADS-B
Sat 06:25:41 AM 56.0589 37.4416 258° West 323 372 11,400 1,545 Climbing FlightAware ADS-B
Sat 06:26:10 AM 56.0553 37.3569 273° West 327 376 12,400 2,172 Climbing FlightAware ADS-B
Sat 06:26:39 AM 56.0637 37.2794 285° West 334 384 13,500 1,967 Climbing FlightAware ADS-B
Sat 06:27:11 AM 56.0732 37.1928 276° West 344 396 14,400 1,895 Climbing FlightAware ADS-B
Sat 06:27:55 AM 56.0765 37.0710 278° West 354 407 15,900 2,024 Climbing FlightAware ADS-B
Sat 06:28:34 AM 56.0831 36.9523 272° West 356 410 17,200 1,850 Climbing FlightAware ADS-B
Sat 06:29:55 AM 56.0928 36.7082 276° West 372 428 19,600 1,784 Climbing FlightAware ADS-B
Sat 06:30:25 AM 56.0973 36.6250 276° West 376 433 20,500 1,297 Climbing FlightAware ADS-B
Sat 06:31:09 AM 56.1052 36.4771 275° West 399 459 21,200 593 Climbing FlightAware ADS-B
Sat 06:53:10 AM 56.5156 31.5646 278° West 452 520 34,000 567 Climbing FlightAware ADS-B
Sat 06:53:43 AM 56.5257 31.4361 278° West 453 521 34,000  Level FlightAware ADS-B
Sat 06:54:14 AM 56.5361 31.3131 281° West 454 522 34,000  Level FlightAware ADS-B
Sat 06:55:16 AM 56.5784 31.0762 294° West 455 524 34,000  Level FlightAware ADS-B
Sat 06:56:14 AM 56.6385 30.8890 306° West 456 525 34,000  Level FlightAware ADS-B
Sat 06:56:45 AM 56.6759 30.8046 311° West 456 525 34,000  Level FlightAware ADS-B
Sat 06:57:29 AM 56.7355 30.6702 303° West 455 524 34,000  Level FlightAware ADS-B
Sat 06:58:44 AM 56.8273 30.4264 304° West 454 522 34,000  Level FlightAware ADS-B
Sat 06:59:32 AM 56.8833 30.2751 304° West 453 521 34,000  Level FlightAware ADS-B
Sat 07:00:44 AM 56.9630 30.0576 304° West 453 521 34,000  Level FlightAware ADS-B
Sat 07:01:45 AM 57.0372 29.8531 304° West 452 520 34,000  Level FlightAware ADS-B
Sat 07:02:44 AM 57.1046 29.6661 303° West 451 519 34,000  Level FlightAware ADS-B
Sat 07:03:44 AM 57.1737 29.4726 303° West 451 519 34,000  Level FlightAware ADS-B
Sat 07:04:43 AM 57.2401 29.2851 303° West 448 516 34,000  Level FlightAware ADS-B
Sat 07:05:44 AM 57.3089 29.0899 303° West 448 516 34,000  Level FlightAware ADS-B
Sat 07:06:42 AM 57.3735 28.9049 303° West 449 517 34,000  Level FlightAware ADS-B
Sat 07:07:44 AM 57.4408 28.7111 303° West 447 514 34,000  Level FlightAware ADS-B
Sat 07:08:45 AM 57.5106 28.5080 303° West 446 513 34,000  Level FlightAware ADS-B
Sat 07:09:44 AM 57.5766 28.3145 302° West 446 513 34,000  Level FlightAware ADS-B
Sat 07:11:13 AM 57.6182 28.1915 302° West 445 512 34,000  Level FlightAware ADS-B
Sat 07:12:15 AM 57.7403 27.8277 302° West 444 511 34,000  Level FlightAware ADS-B
Sat 07:13:01 AM 57.7902 27.6777 302° West 445 512 34,000  Level FlightAware ADS-B
Sat 07:14:00 AM 57.8479 27.4786 290° West 443 510 34,000  Level FlightAware ADS-B
Sat 07:15:01 AM 57.8914 27.2606 291° West 445 512 34,000  Level FlightAware ADS-B
Sat 07:15:35 AM 57.9160 27.1385 291° West 445 512 34,000  Level FlightAware ADS-B
Sat 07:16:09 AM 57.9395 27.0216 291° West 444 511 34,000  Level FlightAware ADS-B
Sat 07:16:47 AM 57.9681 26.8780 291° West 443 510 34,000  Level FlightAware ADS-B
Sat 07:18:01 AM 58.0210 26.6099 290° West 442 509 34,000  Level FlightAware ADS-B
Sat 07:19:03 AM 58.0644 26.3870 290° West 443 510 34,000  Level FlightAware ADS-B
Sat 07:20:03 AM 58.1065 26.1685 290° West 444 511 34,000  Level FlightAware ADS-B
Sat 07:21:02 AM 58.1432 25.9767 290° West 443 510 34,000  Level FlightAware ADS-B
Sat 07:21:32 AM 58.1682 25.8447 290° West 443 510 34,000  Level FlightAware ADS-B
Sat 07:22:02 AM 58.1889 25.7346 290° West 443 510 34,000  Level FlightAware ADS-B
Sat 07:22:33 AM 58.2098 25.6228 289° West 442 509 34,000  Level FlightAware ADS-B
Sat 07:23:24 AM 58.2439 25.4388 289° West 441 507 34,000  Level FlightAware ADS-B
Sat 07:24:17 AM 58.2794 25.2457 289° West 439 505 34,000  Level FlightAware ADS-B
Sat 07:24:52 AM 58.2935 25.1683 289° West 438 504 34,000  Level FlightAware ADS-B
Sat 07:25:23 AM 58.3239 25.0004 289° West 438 504 34,000  Level FlightAware ADS-B
Sat 07:25:56 AM 58.3378 24.9230 289° West 436 502 34,000  Level FlightAware ADS-B
Sat 07:26:34 AM 58.3693 24.7463 289° West 436 502 34,000  Level FlightAware ADS-B
Sat 07:27:12 AM 58.3933 24.6109 289° West 436 502 34,000  Level FlightAware ADS-B
Sat 07:27:59 AM 58.4109 24.5111 289° West 435 501 34,000  Level FlightAware ADS-B
Sat 07:28:55 AM 58.4536 24.2385 286° West 434 499 34,000  Level FlightAware ADS-B
Sat 07:29:32 AM 58.4742 24.0998 286° West 435 501 34,000  Level FlightAware ADS-B
Sat 07:30:27 AM 58.4748 24.0959 286° West 436 502 34,000  Level FlightAware ADS-B
Sat 07:31:14 AM 58.4865 24.0181 286° West 436 502 34,000  Level FlightAware ADS-B
Sat 07:34:14 AM 58.5900 23.3122 285° West 433 498 34,000  Level FlightAware ADS-B
Sat 07:35:16 AM 58.6563 22.8435 285° West 432 497 34,000  Level FlightAware ADS-B
Sat 07:35:57 AM 58.6789 22.6805 285° West 432 497 34,000  Level FlightAware ADS-B
Sat 07:36:36 AM 58.6993 22.5312 285° West 433 498 34,000  Level FlightAware ADS-B
Sat 07:37:11 AM 58.7167 22.4035 285° West 434 499 34,000  Level FlightAware ADS-B
Sat 07:37:55 AM 58.7379 22.2453 285° West 435 501 34,000  Level FlightAware ADS-B
Sat 07:38:35 AM 58.7578 22.0959 284° West 436 502 34,000  Level FlightAware ADS-B
Sat 07:39:17 AM 58.7798 21.9295 284° West 436 502 34,000  Level FlightAware ADS-B
Sat 07:39:47 AM 58.7942 21.8196 284° West 436 502 34,000  Level FlightAware ADS-B
Sat 07:40:17 AM 58.8048 21.7378 284° West 437 503 34,000  Level FlightAware ADS-B
Sat 07:41:18 AM 58.8369 21.4875 284° West 439 505 34,000  Level FlightAware ADS-B
Sat 07:41:59 AM 58.8416 21.4503 284° West 439 505 34,000  Level FlightAware ADS-B
Sat 07:43:08 AM 58.8905 21.0605 285° West 440 506 34,000  Level FlightAware ADS-B
Sat 07:44:24 AM 58.9390 20.7631 287° West 439 505 34,000  Level FlightAware ADS-B
Sat 07:44:35 AM 58.9457 20.7230 287° West 439 505 34,000  Level FlightAware ADS-B
Sat 07:45:22 AM 58.9731 20.5573 288° West 441 507 34,000  Level FlightAware ADS-B
Sat 07:45:56 AM 58.9958 20.4181 287° West 440 506 34,000  Level FlightAware ADS-B
Sat 07:46:40 AM 59.0206 20.2645 287° West 441 507 34,000  Level FlightAware ADS-B
Sat 07:47:11 AM 59.0415 20.1343 287° West 443 510 34,000  Level FlightAware ADS-B
Sat 07:47:42 AM 59.0588 20.0259 287° West 444 511 34,000  Level FlightAware ADS-B
Sat 07:48:24 AM 59.0791 19.8976 287° West 447 514 34,000  Level FlightAware ADS-B
Sat 07:49:04 AM 59.1080 19.7135 287° West 448 516 34,000  Level FlightAware ADS-B
Sat 07:49:41 AM 59.1317 19.5607 287° West 449 517 34,000  Level FlightAware ADS-B
Sat 07:50:27 AM 59.1573 19.3943 287° West 450 518 34,000  Level FlightAware ADS-B
Sat 07:51:02 AM 59.1778 19.2605 286° West 450 518 34,000  Level FlightAware ADS-B
Sat 07:51:42 AM 59.2026 19.0962 286° West 451 519 34,000  Level FlightAware ADS-B
Sat 07:52:27 AM 59.2277 18.9286 286° West 452 520 34,000  Level FlightAware ADS-B
Sat 07:52:57 AM 59.2463 18.8027 285° West 451 519 34,000  Level FlightAware ADS-B
Sat 07:53:27 AM 59.2615 18.6998 286° West 454 522 34,000  Level FlightAware ADS-B
Sat 07:53:57 AM 59.2811 18.5655 285° West 452 520 34,000  Level FlightAware ADS-B
Sat 07:54:26 AM 59.2976 18.4513 285° West 452 520 34,000  Level FlightAware ADS-B
Sat 07:54:56 AM 59.3150 18.3309 285° West 453 521 34,000  Level FlightAware ADS-B
Sat 07:55:27 AM 59.3302 18.2247 286° West 455 524 34,000  Level FlightAware ADS-B
Sat 07:55:57 AM 59.3495 18.0890 285° West 452 520 34,000  Level FlightAware ADS-B
Sat 07:56:29 AM 59.3649 17.9793 285° West 453 521 34,000  Level FlightAware ADS-B
Sat 07:57:12 AM 59.3889 17.8074 285° West 454 522 34,000  Level FlightAware ADS-B
Sat 07:57:42 AM 59.4071 17.6755 285° West 454 522 34,000  Level FlightAware ADS-B
Sat 07:58:15 AM 59.4234 17.5562 285° West 455 524 34,000  Level FlightAware ADS-B
Sat 07:58:58 AM 59.4462 17.3897 285° West 456 525 34,000  Level FlightAware ADS-B
Sat 07:59:38 AM 59.4678 17.2288 285° West 458 527 34,000  Level FlightAware ADS-B
Sat 08:00:12 AM 59.4883 17.0755 285° West 459 528 34,000  Level FlightAware ADS-B
Sat 08:00:57 AM 59.5119 16.8957 285° West 460 529 34,000  Level FlightAware ADS-B
Sat 08:01:43 AM 59.5349 16.7198 284° West 459 528 34,000  Level FlightAware ADS-B
Sat 08:02:25 AM 59.5560 16.5561 284° West 458 527 34,000  Level FlightAware ADS-B
Sat 08:02:57 AM 59.5747 16.4088 283° West 457 526 34,000  Level FlightAware ADS-B
Sat 08:03:42 AM 59.5976 16.2273 283° West 458 527 34,000  Level FlightAware ADS-B
Sat 08:04:13 AM 59.6130 16.1035 283° West 458 527 34,000  Level FlightAware ADS-B
Sat 08:04:45 AM 59.6267 15.9927 284° West 459 528 34,000 333 Level FlightAware ADS-B
Sat 08:05:25 AM 59.6467 15.8287 283° West 461 531 34,400 833 Climbing FlightAware ADS-B
Sat 08:05:57 AM 59.6648 15.6795 283° West 457 526 35,000 968 Climbing FlightAware ADS-B
Sat 08:06:27 AM 59.6808 15.5579 287° West 458 527 35,400 730 Climbing FlightAware ADS-B
Sat 08:07:11 AM 59.7116 15.3814 289° West 462 532 35,900 396 Climbing FlightAware ADS-B
Sat 08:07:58 AM 59.7423 15.1957 287° West 464 534 36,000 66 Climbing FlightAware ADS-B
Sat 08:08:42 AM 59.7711 15.0161 287° West 462 532 36,000  Level FlightAware ADS-B
Sat 08:09:13 AM 59.7910 14.8908 287° West 462 532 36,000  Level FlightAware ADS-B
Sat 08:09:57 AM 59.8191 14.7114 286° West 460 529 36,000  Level FlightAware ADS-B
Sat 08:10:28 AM 59.8384 14.5883 286° West 459 528 36,000  Level FlightAware ADS-B
Sat 08:11:12 AM 59.8653 14.4134 287° West 460 529 36,000  Level FlightAware ADS-B
Sat 08:11:43 AM 59.8849 14.2855 287° West 460 529 36,000  Level FlightAware ADS-B
Sat 08:12:13 AM 59.9034 14.1642 287° West 459 528 36,000  Level FlightAware ADS-B
Sat 08:12:43 AM 59.9217 14.0428 287° West 459 528 36,000  Level FlightAware ADS-B
Sat 08:13:13 AM 59.9397 13.9227 287° West 459 528 36,000  Level FlightAware ADS-B
Sat 08:13:43 AM 59.9579 13.8002 287° West 460 529 36,000  Level FlightAware ADS-B
Sat 08:14:28 AM 59.9850 13.6159 286° West 460 529 36,000  Level FlightAware ADS-B
Sat 08:14:58 AM 60.0029 13.4939 286° West 459 528 36,000  Level FlightAware ADS-B
Sat 08:15:28 AM 60.0195 13.3790 286° West 460 529 36,000  Level FlightAware ADS-B
Sat 08:15:58 AM 60.0381 13.2497 286° West 461 531 36,000  Level FlightAware ADS-B
Sat 08:16:29 AM 60.0558 13.1261 285° West 458 527 36,000  Level FlightAware ADS-B
Sat 08:17:13 AM 60.0813 12.9451 285° West 460 529 36,000  Level FlightAware ADS-B
Sat 08:17:44 AM 60.0992 12.8172 285° West 461 531 36,000  Level FlightAware ADS-B
Sat 08:18:27 AM 60.1240 12.6384 284° West 463 533 36,000  Level FlightAware ADS-B
Sat 08:18:58 AM 60.1414 12.5120 285° West 464 534 36,000  Level FlightAware ADS-B
Sat 08:19:28 AM 60.1588 12.3845 284° West 463 533 36,000  Level FlightAware ADS-B
Sat 08:20:13 AM 60.1838 12.1993 284° West 463 533 36,000  Level FlightAware ADS-B
Sat 08:20:43 AM 60.2003 12.0750 284° West 464 534 36,000  Level FlightAware ADS-B
Sat 08:21:13 AM 60.2171 11.9485 284° West 465 535 36,000  Level FlightAware ADS-B
Sat 08:21:43 AM 60.2335 11.8237 284° West 465 535 36,000  Level FlightAware ADS-B
Sat 08:22:13 AM 60.2500 11.6966 285° West 468 539 36,000  Level FlightAware ADS-B
Sat 08:22:43 AM 60.2661 11.5719 285° West 468 539 36,000  Level FlightAware ADS-B
Sat 08:23:13 AM 60.2824 11.4444 284° West 469 540 36,000  Level FlightAware ADS-B
Sat 08:23:44 AM 60.2981 11.3211 284° West 467 537 36,000  Level FlightAware ADS-B
Sat 08:24:28 AM 60.3221 11.1306 284° West 467 537 36,000  Level FlightAware ADS-B
Sat 08:24:59 AM 60.3382 11.0006 284° West 465 535 36,000  Level FlightAware ADS-B
Sat 08:25:43 AM 60.3613 10.8140 284° West 464 534 36,000  Level FlightAware ADS-B
Sat 08:26:24 AM 60.3818 10.6445 283° West 460 529 36,000  Level FlightAware ADS-B
Sat 08:28:13 AM 60.4361 10.1892 282° West 459 528 36,000  Level FlightAware ADS-B
Sat 08:28:50 AM 60.4538 10.0362 282° West 459 528 36,000  Level FlightAware ADS-B
Sat 08:29:23 AM 60.4700 9.8956 282° West 459 528 36,000  Level FlightAware ADS-B
Sat 08:31:00 AM 60.5165 9.5040 284° West  Level Estimated
Sat 08:32:00 AM 60.5447 9.2612 283° West  Level Estimated
Sat 08:33:00 AM 60.5725 9.0180 283° West  Level Estimated
Sat 08:34:00 AM 60.5998 8.7744 283° West  Level Estimated
Sat 08:35:00 AM 60.6267 8.5303 283° West  Level Estimated
Sat 08:36:00 AM 60.6531 8.2858 283° West  Level Estimated
Sat 08:37:00 AM 60.6791 8.0410 282° West  Level Estimated
Sat 08:38:00 AM 60.7046 7.7958 282° West  Level Estimated
Sat 08:39:00 AM 60.7297 7.5501 282° West  Level Estimated
Sat 08:40:00 AM 60.7543 7.3041 282° West  Level Estimated
Sat 08:41:00 AM 60.7785 7.0577 281° West  Level Estimated
Sat 08:42:00 AM 60.8022 6.8110 281° West  Level Estimated
Sat 08:43:00 AM 60.8255 6.5639 281° West  Level Estimated
Sat 08:44:00 AM 60.8483 6.3164 281° West  Level Estimated
Sat 08:45:00 AM 60.8707 6.0686 281° West  Level Estimated
Sat 08:46:00 AM 60.8926 5.8204 280° West  Level Estimated
Sat 08:47:00 AM 60.9141 5.5719 280° West  Level Estimated
Sat 08:48:00 AM 60.9350 5.3231 280° West  Level Estimated
Sat 08:49:00 AM 60.9556 5.0739 280° West  Level Estimated
Sat 08:50:00 AM 60.9756 4.8244 280° West  Level Estimated
Sat 08:51:00 AM 60.9953 4.5746 279° West  Level Estimated
Sat 08:52:00 AM 61.0144 4.3245 279° West  Level Estimated
Sat 08:53:00 AM 61.0331 4.0741 279° West  Level Estimated
Sat 08:54:00 AM 61.0513 3.8235 279° West  Level Estimated
Sat 08:55:00 AM 61.0691 3.5725 278° West  Level Estimated
Sat 08:56:00 AM 61.0864 3.3212 278° West  Level Estimated
Sat 08:57:00 AM 61.1032 3.0697 278° West  Level Estimated
Sat 08:58:00 AM 61.1195 2.8179 278° West  Level Estimated
Sat 08:59:00 AM 61.1354 2.5659 278° West  Level Estimated
Sat 09:00:00 AM 61.1508 2.3136 277° West  Level Estimated
Sat 09:01:00 AM 61.1658 2.0611 277° West  Level Estimated
Sat 09:02:00 AM 61.1803 1.8083 277° West  Level Estimated
Sat 09:03:00 AM 61.1943 1.5553 277° West  Level Estimated
Sat 09:04:00 AM 61.2078 1.3021 276° West  Level Estimated
Sat 09:05:00 AM 61.2209 1.0487 276° West  Level Estimated
Sat 09:06:00 AM 61.2335 0.7950 276° West  Level Estimated
Sat 09:07:00 AM 61.2456 0.5412 276° West  Level Estimated
Sat 09:08:00 AM 61.2572 0.2872 276° West  Level Estimated
Sat 09:09:00 AM 61.2684 0.0329 275° West  Level Estimated
Sat 09:10:00 AM 61.2791 -0.2214 275° West  Level Estimated
Sat 09:11:00 AM 61.2893 -0.4760 275° West  Level Estimated
Sat 09:12:00 AM 61.2990 -0.7307 275° West  Level Estimated
Sat 09:13:00 AM 61.3083 -0.9856 274° West  Level Estimated
Sat 09:14:00 AM 61.3171 -1.2406 274° West  Level Estimated
Sat 09:15:00 AM 61.3254 -1.4958 274° West  Level Estimated
Sat 09:16:00 AM 61.3332 -1.7511 274° West  Level Estimated
Sat 09:17:00 AM 61.3405 -2.0065 274° West  Level Estimated
Sat 09:18:00 AM 61.3474 -2.2620 273° West  Level Estimated
Sat 09:19:00 AM 61.3538 -2.5177 273° West  Level Estimated
Sat 09:20:00 AM 61.3597 -2.7734 273° West  Level Estimated
Sat 09:21:00 AM 61.3651 -3.0292 273° West  Level Estimated
Sat 09:22:00 AM 61.3700 -3.2852 272° West  Level Estimated
Sat 09:23:00 AM 61.3745 -3.5412 272° West  Level Estimated
Sat 09:24:00 AM 61.3785 -3.7972 272° West  Level Estimated
Sat 09:25:00 AM 61.3820 -4.0533 272° West  Level Estimated
Sat 09:26:00 AM 61.3850 -4.3095 272° West  Level Estimated
Sat 09:27:00 AM 61.3876 -4.5657 271° West  Level Estimated
Sat 09:28:00 AM 61.3896 -4.8220 271° West  Level Estimated
Sat 09:29:00 AM 61.3912 -5.0783 271° West  Level Estimated
Sat 09:30:00 AM 61.3923 -5.3346 271° West  Level Estimated
Sat 09:31:00 AM 61.3929 -5.5909 270° West  Level Estimated
Sat 09:32:00 AM 61.3930 -5.8473 270° West  Level Estimated
Sat 09:33:00 AM 61.3927 -6.1036 270° West  Level Estimated
Sat 09:34:00 AM 61.3918 -6.3599 270° West  Level Estimated
Sat 09:35:00 AM 61.3905 -6.6162 269° West  Level Estimated
Sat 09:36:00 AM 61.3887 -6.8725 269° West  Level Estimated
Sat 09:37:00 AM 61.3864 -7.1288 269° West  Level Estimated
Sat 09:38:00 AM 61.3837 -7.3850 269° West  Level Estimated
Sat 09:39:00 AM 61.3804 -7.6411 269° West  Level Estimated
Sat 09:40:00 AM 61.3767 -7.8972 268° West  Level Estimated
Sat 09:41:00 AM 61.3725 -8.1532 268° West  Level Estimated
Sat 09:42:00 AM 61.3678 -8.4092 268° West  Level Estimated
Sat 09:43:00 AM 61.3626 -8.6651 268° West  Level Estimated
Sat 09:44:00 AM 61.3570 -8.9209 267° West  Level Estimated
Sat 09:45:00 AM 61.3508 -9.1766 267° West  Level Estimated
Sat 09:46:00 AM 61.3442 -9.4322 267° West  Level Estimated
Sat 09:47:00 AM 61.3371 -9.6876 267° West  Level Estimated
Sat 09:48:00 AM 61.3296 -9.9430 267° West  Level Estimated
Sat 09:49:00 AM 61.3215 -10.1982 266° West  Level Estimated
Sat 09:50:00 AM 61.3130 -10.4533 266° West  Level Estimated
Sat 09:51:00 AM 61.3040 -10.7083 266° West  Level Estimated
Sat 09:52:00 AM 61.2945 -10.9631 266° West  Level Estimated
Sat 09:53:00 AM 61.2845 -11.2177 265° West  Level Estimated
Sat 09:54:00 AM 61.2741 -11.4722 265° West  Level Estimated
Sat 09:55:00 AM 61.2632 -11.7265 265° West  Level Estimated
Sat 09:56:00 AM 61.2518 -11.9806 265° West  Level Estimated
Sat 09:57:00 AM 61.2400 -12.2346 265° West  Level Estimated
Sat 09:58:00 AM 61.2276 -12.4883 264° West  Level Estimated
Sat 09:59:00 AM 61.2148 -12.7419 264° West  Level Estimated
Sat 10:00:00 AM 61.2015 -12.9952 264° West  Level Estimated
Sat 10:01:00 AM 61.1878 -13.2483 264° West  Level Estimated
Sat 10:02:00 AM 61.1735 -13.5012 263° West  Level Estimated
Sat 10:03:00 AM 61.1589 -13.7539 263° West  Level Estimated
Sat 10:04:00 AM 61.1437 -14.0063 263° West  Level Estimated
Sat 10:05:00 AM 61.1280 -14.2585 263° West  Level Estimated
Sat 10:06:00 AM 61.1119 -14.5104 263° West  Level Estimated
Sat 10:07:00 AM 61.0954 -14.7620 262° West  Level Estimated
Sat 10:08:00 AM 61.0783 -15.0134 262° West  Level Estimated
Sat 10:09:00 AM 61.0608 -15.2646 262° West  Level Estimated
Sat 10:10:00 AM 61.0428 -15.5154 262° West  Level Estimated
Sat 10:11:00 AM 61.0244 -15.7659 261° West  Level Estimated
Sat 10:12:00 AM 61.0055 -16.0162 261° West  Level Estimated
Sat 10:14:00 AM 60.9663 -16.5158 261° West  Level Estimated
Sat 10:15:00 AM 60.9460 -16.7651 261° West  Level Estimated
Sat 10:16:00 AM 60.9253 -17.0141 260° West  Level Estimated
Sat 10:17:00 AM 60.9040 -17.2628 260° West  Level Estimated
Sat 10:18:00 AM 60.8824 -17.5112 260° West  Level Estimated
Sat 10:19:00 AM 60.8603 -17.7592 260° West  Level Estimated
Sat 10:20:00 AM 60.8377 -18.0068 260° West  Level Estimated
Sat 10:21:00 AM 60.8147 -18.2541 259° West  Level Estimated
Sat 10:22:00 AM 60.7912 -18.5011 259° West  Level Estimated
Sat 10:23:00 AM 60.7672 -18.7477 259° West  Level Estimated
Sat 10:24:00 AM 60.7428 -18.9939 259° West  Level Estimated
Sat 10:25:00 AM 60.7180 -19.2397 258° West  Level Estimated
Sat 10:26:00 AM 60.6927 -19.4851 258° West  Level Estimated
Sat 10:27:00 AM 60.6670 -19.7302 258° West  Level Estimated
Sat 10:28:00 AM 60.6408 -19.9749 258° West  Level Estimated
Sat 10:29:00 AM 60.6141 -20.2191 258° West  Level Estimated
Sat 10:30:00 AM 60.5871 -20.4630 257° West  Level Estimated
Sat 10:31:00 AM 60.5595 -20.7064 257° West  Level Estimated
Sat 10:32:00 AM 60.5316 -20.9495 257° West  Level Estimated
Sat 10:33:00 AM 60.5032 -21.1921 257° West  Level Estimated
Sat 10:34:00 AM 60.4743 -21.4342 257° West  Level Estimated
Sat 10:35:00 AM 60.4451 -21.6760 256° West  Level Estimated
Sat 10:36:00 AM 60.4153 -21.9173 256° West  Level Estimated
Sat 10:37:00 AM 60.3852 -22.1582 256° West  Level Estimated
Sat 10:38:00 AM 60.3546 -22.3986 256° West  Level Estimated
Sat 10:39:00 AM 60.3236 -22.6385 255° West  Level Estimated
Sat 10:40:00 AM 60.2921 -22.8780 255° West  Level Estimated
Sat 10:41:00 AM 60.2603 -23.1171 255° West  Level Estimated
Sat 10:42:00 AM 60.2279 -23.3556 255° West  Level Estimated
Sat 10:43:00 AM 60.1952 -23.5938 255° West  Level Estimated
Sat 10:44:00 AM 60.1620 -23.8314 254° West  Level Estimated
Sat 10:45:00 AM 60.1284 -24.0685 254° West  Level Estimated
Sat 10:46:00 AM 60.0944 -24.3051 254° West  Level Estimated
Sat 10:47:00 AM 60.0600 -24.5413 254° West  Level Estimated
Sat 10:48:00 AM 60.0252 -24.7770 254° West  Level Estimated
Sat 10:49:00 AM 59.9899 -25.0121 253° West  Level Estimated
Sat 10:50:00 AM 59.9542 -25.2468 253° West  Level Estimated
Sat 10:51:00 AM 59.9181 -25.4809 253° West  Level Estimated
Sat 10:52:00 AM 59.8816 -25.7146 253° West  Level Estimated
Sat 10:53:00 AM 59.8446 -25.9477 253° West  Level Estimated
Sat 10:54:00 AM 59.8073 -26.1803 252° West  Level Estimated
Sat 10:55:00 AM 59.7696 -26.4124 252° West  Level Estimated
Sat 10:56:00 AM 59.7314 -26.6440 252° West  Level Estimated
Sat 10:57:00 AM 59.6928 -26.8750 252° West  Level Estimated
Sat 10:58:00 AM 59.6539 -27.1055 252° West  Level Estimated
Sat 10:59:00 AM 59.6145 -27.3354 251° West  Level Estimated
Sat 11:00:00 AM 59.5747 -27.5648 251° West  Level Estimated
Sat 11:01:00 AM 59.5345 -27.7937 251° West  Level Estimated
Sat 11:02:00 AM 59.4940 -28.0220 251° West  Level Estimated
Sat 11:03:00 AM 59.4530 -28.2498 251° West  Level Estimated
Sat 11:04:00 AM 59.4116 -28.4770 250° West  Level Estimated
Sat 11:05:00 AM 59.3699 -28.7037 250° West  Level Estimated
Sat 11:06:00 AM 59.3277 -28.9298 250° West  Level Estimated
Sat 11:07:00 AM 59.2852 -29.1553 250° West  Level Estimated
Sat 11:08:00 AM 59.2422 -29.3803 250° West  Level Estimated
Sat 11:09:00 AM 59.1989 -29.6047 249° West  Level Estimated
Sat 11:10:00 AM 59.1552 -29.8285 249° West  Level Estimated
Sat 11:11:00 AM 59.1111 -30.0518 249° West  Level Estimated
Sat 11:12:00 AM 59.0667 -30.2744 249° West  Level Estimated
Sat 11:13:00 AM 59.0218 -30.4965 249° West  Level Estimated
Sat 11:14:00 AM 58.9766 -30.7181 248° West  Level Estimated
Sat 11:15:00 AM 58.9310 -30.9390 248° West  Level Estimated
Sat 11:16:00 AM 58.8850 -31.1594 248° West  Level Estimated
Sat 11:17:00 AM 58.8386 -31.3791 248° West  Level Estimated
Sat 11:18:00 AM 58.7919 -31.5983 248° West  Level Estimated
Sat 11:19:00 AM 58.7448 -31.8169 248° West  Level Estimated
Sat 11:20:00 AM 58.6973 -32.0349 247° West  Level Estimated
Sat 11:21:00 AM 58.6495 -32.2523 247° West  Level Estimated
Sat 11:22:00 AM 58.6013 -32.4691 247° West  Level Estimated
Sat 11:23:00 AM 58.5527 -32.6853 247° West  Level Estimated
Sat 11:24:00 AM 58.5038 -32.9009 247° West  Level Estimated
Sat 11:25:00 AM 58.4545 -33.1158 246° West  Level Estimated
Sat 11:26:00 AM 58.4049 -33.3302 246° West  Level Estimated
Sat 11:27:00 AM 58.3549 -33.5440 246° West  Level Estimated
Sat 11:28:00 AM 58.3045 -33.7572 246° West  Level Estimated
Sat 11:29:00 AM 58.2538 -33.9698 246° West  Level Estimated
Sat 11:30:00 AM 58.2027 -34.1817 246° West  Level Estimated
Sat 11:31:00 AM 58.1513 -34.3931 245° Southwest  Level Estimated
Sat 11:32:00 AM 58.0995 -34.6038 245° Southwest  Level Estimated
Sat 11:33:00 AM 58.0474 -34.8139 245° Southwest  Level Estimated
Sat 11:34:00 AM 57.9950 -35.0235 245° Southwest  Level Estimated
Sat 11:35:00 AM 57.9422 -35.2324 245° Southwest  Level Estimated
Sat 11:36:00 AM 57.8890 -35.4407 244° Southwest  Level Estimated
Sat 11:37:00 AM 57.8356 -35.6483 244° Southwest  Level Estimated
Sat 11:38:00 AM 57.7817 -35.8554 244° Southwest  Level Estimated
Sat 11:39:00 AM 57.7298 -36.0534 244° Southwest  Level Estimated
Sat 11:40:00 AM 57.6776 -36.2509 244° Southwest  Level Estimated
Sat 11:41:00 AM 57.6250 -36.4478 244° Southwest  Level Estimated
Sat 11:42:00 AM 57.5721 -36.6441 243° Southwest  Level Estimated
Sat 11:43:00 AM 57.5190 -36.8398 243° Southwest  Level Estimated
Sat 11:44:00 AM 57.4655 -37.0350 243° Southwest  Level Estimated
Sat 11:45:00 AM 57.4117 -37.2296 243° Southwest  Level Estimated
Sat 11:46:00 AM 57.3577 -37.4237 243° Southwest  Level Estimated
Sat 11:47:00 AM 57.3033 -37.6171 243° Southwest  Level Estimated
Sat 11:48:00 AM 57.2486 -37.8100 242° Southwest  Level Estimated
Sat 11:49:00 AM 57.1937 -38.0023 242° Southwest  Level Estimated
Sat 11:50:00 AM 57.1384 -38.1941 242° Southwest  Level Estimated
Sat 11:51:00 AM 57.0829 -38.3853 242° Southwest  Level Estimated
Sat 11:52:00 AM 57.0271 -38.5759 242° Southwest  Level Estimated
Sat 11:53:00 AM 56.9709 -38.7659 242° Southwest  Level Estimated
Sat 11:54:00 AM 56.9145 -38.9553 241° Southwest  Level Estimated
Sat 11:55:00 AM 56.8578 -39.1442 241° Southwest  Level Estimated
Sat 11:56:00 AM 56.8009 -39.3325 241° Southwest  Level Estimated
Sat 11:57:00 AM 56.7436 -39.5203 241° Southwest  Level Estimated
Sat 11:58:00 AM 56.6861 -39.7074 241° Southwest  Level Estimated
Sat 11:59:00 AM 56.6283 -39.8940 241° Southwest  Level Estimated
Sat 11:59:54 AM 64.2000 -48.5500 240° Southwest 490 564 36,000  Level Gander Center
Sat 12:00:00 PM 56.5702 -40.0800 241° Southwest  Level Estimated
Sat 12:00:54 PM 64.1500 -48.8333 248° West 490 564 36,000  Level Gander Center
Sat 12:01:00 PM 56.5118 -40.2655 240° Southwest  Level Estimated
Sat 12:01:54 PM 64.1333 -49.1500 263° West 490 564 36,000  Level Gander Center
Sat 12:02:00 PM 56.4531 -40.4504 240° Southwest  Level Estimated
Sat 12:02:54 PM 64.0833 -49.4333 248° West 490 564 36,000  Level Gander Center
Sat 12:03:00 PM 56.3942 -40.6347 240° Southwest  Level Estimated
Sat 12:03:54 PM 64.0333 -49.7167 248° West 480 552 36,000  Level Gander Center
Sat 12:04:00 PM 56.3350 -40.8184 240° Southwest  Level Estimated
Sat 12:04:54 PM 64.0167 -50.0000 262° West 490 564 36,000  Level Gander Center
Sat 12:05:00 PM 56.2755 -41.0016 240° Southwest  Level Estimated
Sat 12:05:54 PM 63.9667 -50.2833 248° West 490 564 36,000  Level Gander Center
Sat 12:06:54 PM 63.9167 -50.5667 248° West 480 552 36,000  Level Gander Center
Sat 12:07:28 PM 63.8833 -50.7333 246° West 490 564 36,000  Level Gander Center
Sat 12:08:28 PM 63.8333 -51.0500 250° West 490 564 36,000  Level Gander Center
Sat 12:09:28 PM 63.7833 -51.3333 248° West 490 564 36,000  Level Gander Center
Sat 12:10:28 PM 63.7333 -51.6167 248° West 490 564 36,000  Level Gander Center
Sat 12:11:28 PM 63.7000 -51.8833 254° West 490 564 36,000  Level Gander Center
Sat 12:12:28 PM 63.6500 -52.1667 248° West 490 564 36,000  Level Gander Center
Sat 12:13:28 PM 63.6000 -52.4500 248° West 480 552 36,000  Level Gander Center
Sat 12:14:28 PM 63.5500 -52.7167 247° West 490 564 36,000  Level Gander Center
Sat 12:15:28 PM 63.5000 -53.0000 249° West 490 564 36,000  Level Gander Center
Sat 12:16:28 PM 63.4500 -53.2667 247° West 490 564 36,000  Level Gander Center
Sat 12:17:28 PM 63.4000 -53.5500 249° West 490 564 36,000  Level Gander Center
Sat 12:18:28 PM 63.3500 -53.8167 247° West 480 552 36,000  Level Gander Center
Sat 12:19:28 PM 63.3000 -54.1000 249° West 480 552 36,000  Level Gander Center
Sat 12:20:28 PM 63.2333 -54.3667 241° Southwest 480 552 36,000  Level Gander Center
Sat 12:21:28 PM 63.1833 -54.6667 250° West 490 564 36,000  Level Gander Center
Sat 12:22:28 PM 63.1333 -54.9333 248° West 490 564 36,000  Level Gander Center
Sat 12:23:28 PM 63.0833 -55.2000 248° West 490 564 36,000  Level Gander Center
Sat 12:24:28 PM 63.0167 -55.4667 241° Southwest 490 564 36,000  Level Gander Center
Sat 12:25:28 PM 62.9667 -55.7333 248° West 490 564 36,000  Level Gander Center
Sat 12:26:28 PM 62.9167 -56.0000 248° West 490 564 36,000  Level Gander Center
Sat 12:28:28 PM 62.8000 -56.5333 245° Southwest 490 564 36,000  Level Gander Center
Sat 12:29:28 PM 62.7500 -56.8000 248° West 490 564 36,000  Level Gander Center
Sat 12:30:28 PM 62.7000 -57.0500 247° West 490 564 36,000  Level Gander Center
Sat 12:32:28 PM 62.5667 -57.5833 242° Southwest 490 564 36,000  Level Gander Center
Sat 12:33:28 PM 62.4833 -57.8000 230° Southwest 490 564 36,000  Level Gander Center
Sat 12:34:28 PM 62.4000 -58.0667 236° Southwest 490 564 36,000  Level Gander Center
Sat 12:35:28 PM 62.3333 -58.2833 237° Southwest 490 564 36,000  Level Gander Center
Sat 12:36:28 PM 62.2500 -58.5333 234° Southwest 490 564 36,000  Level Gander Center
Sat 12:37:28 PM 62.1667 -58.7667 233° Southwest 490 564 36,000  Level Gander Center
Sat 12:38:28 PM 62.0833 -58.9833 231° Southwest 490 564 36,000  Level Gander Center
Sat 12:39:28 PM 62.0167 -59.2333 240° Southwest 490 564 36,000  Level Gander Center
Sat 12:40:28 PM 61.9333 -59.4500 231° Southwest 490 564 36,000  Level Gander Center
Sat 12:41:28 PM 61.8500 -59.7000 235° Southwest 490 564 36,000  Level Gander Center
Sat 12:42:28 PM 61.7667 -59.9167 231° Southwest 480 552 36,000  Level Gander Center
Sat 12:43:28 PM 61.6833 -60.1333 231° Southwest 480 552 36,000  Level Gander Center
Sat 12:44:28 PM 61.6167 -60.3667 239° Southwest 480 552 36,000  Level Gander Center
Sat 12:45:28 PM 61.5333 -60.5833 231° Southwest 480 552 36,000  Level Gander Center
Sat 12:46:28 PM 61.4500 -60.8000 231° Southwest 480 552 36,000  Level Gander Center
Sat 12:47:28 PM 61.3667 -61.0333 233° Southwest 480 552 36,000  Level Gander Center
Sat 12:48:28 PM 61.2833 -61.2500 231° Southwest 480 552 36,000  Level Gander Center
Sat 12:49:28 PM 61.2000 -61.4500 229° Southwest 480 552 36,000  Level Gander Center
Sat 12:50:28 PM 61.1167 -61.6667 232° Southwest 480 552 36,000  Level Gander Center
Sat 12:51:28 PM 61.0333 -61.9000 234° Southwest 480 552 36,000  Level Gander Center
Sat 12:52:28 PM 60.9500 -62.1000 229° Southwest 480 552 36,000  Level Gander Center
Sat 12:53:28 PM 60.8667 -62.3000 229° Southwest 480 552 36,000  Level Gander Center
Sat 12:54:28 PM 60.8000 -62.5500 241° Southwest 480 552 36,000  Level Gander Center
Sat 12:55:28 PM 60.6833 -62.7333 218° Southwest 480 552 36,000  Level Gander Center
Sat 12:56:28 PM 60.6167 -62.9833 242° Southwest 480 552 36,000  Level Gander Center
Sat 12:57:28 PM 60.5333 -63.1667 227° Southwest 480 552 36,000  Level Gander Center
Sat 12:58:28 PM 60.4500 -63.3667 230° Southwest 480 552 36,000  Level Gander Center
Sat 12:59:28 PM 60.3667 -63.6000 234° Southwest 480 552 36,000  Level Gander Center
Sat 01:00:12 PM 60.2833 -63.6833 206° Southwest 470 541 36,000  Level Montreal Center
Sat 01:01:28 PM 60.1833 -63.9833 236° Southwest 480 552 36,000  Level Gander Center
Sat 01:02:28 PM 60.1000 -64.1833 230° Southwest 480 552 36,000  Level Gander Center
Sat 01:03:28 PM 60.0167 -64.3833 230° Southwest 480 552 36,000  Level Gander Center
Sat 01:04:28 PM 59.9333 -64.6000 233° Southwest 480 552 36,000  Level Gander Center
Sat 01:05:28 PM 59.8333 -64.8000 225° Southwest 480 552 36,000  Level Gander Center
Sat 01:06:28 PM 59.7500 -64.9833 228° Southwest 480 552 36,000  Level Gander Center
Sat 01:07:28 PM 59.6667 -65.1667 228° Southwest 480 552 36,000  Level Gander Center
Sat 01:08:28 PM 59.5667 -65.3833 228° Southwest 480 552 36,000  Level Gander Center
Sat 01:09:28 PM 59.4833 -65.5833 231° Southwest 480 552 36,000  Level Gander Center
Sat 01:10:28 PM 59.4000 -65.8000 233° Southwest 480 552 36,000  Level Gander Center
Sat 01:11:28 PM 59.3000 -65.9833 223° Southwest 480 552 36,000  Level Gander Center
Sat 01:12:28 PM 59.2167 -66.1667 228° Southwest 480 552 36,000  Level Gander Center
Sat 01:13:28 PM 59.1333 -66.3500 229° Southwest 470 541 36,000  Level Gander Center
Sat 01:14:28 PM 59.0500 -66.5333 229° Southwest 470 541 36,000  Level Gander Center
Sat 01:15:28 PM 58.9667 -66.7167 229° Southwest 470 541 36,000  Level Gander Center
Sat 01:16:28 PM 58.8667 -66.8833 221° Southwest 470 541 36,000  Level Gander Center
Sat 01:17:28 PM 58.7833 -67.0667 229° Southwest 460 529 36,000  Level Gander Center
Sat 01:18:28 PM 58.7000 -67.2500 229° Southwest 460 529 36,000  Level Gander Center
Sat 01:19:28 PM 58.6167 -67.4333 229° Southwest 460 529 36,000  Level Gander Center
Sat 01:20:28 PM 58.5167 -67.6000 221° Southwest 470 541 36,000  Level Gander Center
Sat 01:21:28 PM 58.4333 -67.7833 229° Southwest 470 541 36,000  Level Gander Center
Sat 01:22:28 PM 58.3333 -67.9833 226° Southwest 470 541 36,000  Level Gander Center
Sat 01:23:28 PM 58.2500 -68.1667 229° Southwest 470 541 36,000  Level Gander Center
Sat 01:24:28 PM 58.1500 -68.3667 227° Southwest 480 552 36,000  Level Gander Center
Sat 01:25:28 PM 58.0500 -68.5000 215° Southwest 480 552 36,000  Level Gander Center
Sat 01:26:28 PM 57.9500 -68.6500 219° Southwest 470 541 36,000  Level Gander Center
Sat 01:27:28 PM 57.8333 -68.8167 217° Southwest 470 541 36,000  Level Gander Center
Sat 01:28:28 PM 57.7333 -68.9500 215° Southwest 470 541 36,000  Level Gander Center
Sat 01:29:28 PM 57.6167 -69.1167 217° Southwest 470 541 36,000  Level Gander Center
Sat 01:30:28 PM 57.5167 -69.2500 216° Southwest 480 552 36,000  Level Gander Center
Sat 01:31:28 PM 57.4167 -69.3833 216° Southwest 480 552 36,000  Level Gander Center
Sat 01:32:28 PM 57.3167 -69.5167 216° Southwest 470 541 36,000  Level Gander Center
Sat 01:33:28 PM 57.2000 -69.6667 215° Southwest 470 541 36,000  Level Gander Center
Sat 01:34:28 PM 57.0833 -69.8000 212° Southwest 470 541 36,000  Level Gander Center
Sat 01:35:28 PM 56.9833 -69.9333 216° Southwest 470 541 36,000  Level Gander Center
Sat 01:36:28 PM 56.8667 -70.0667 212° Southwest 470 541 36,000  Level Gander Center
Sat 01:37:28 PM 56.7833 -70.2167 225° Southwest 480 552 36,000  Level Gander Center
Sat 01:38:28 PM 56.6667 -70.3500 212° Southwest 470 541 36,000  Level Gander Center
Sat 01:39:28 PM 56.5500 -70.4833 212° Southwest 470 541 36,000  Level Gander Center
Sat 01:40:28 PM 56.4500 -70.6000 213° Southwest 470 541 36,000  Level Gander Center
Sat 01:41:28 PM 56.3333 -70.7500 216° Southwest 470 541 36,000  Level Gander Center
Sat 01:42:28 PM 56.2167 -70.8833 212° Southwest 460 529 36,000  Level Gander Center
Sat 01:43:28 PM 56.1333 -71.0167 222° Southwest 460 529 36,000  Level Gander Center
Sat 01:44:28 PM 56.0167 -71.1333 209° Southwest 470 541 36,000  Level Gander Center
Sat 01:45:28 PM 55.9167 -71.2500 213° Southwest 470 541 36,000  Level Gander Center
Sat 01:46:28 PM 55.8000 -71.4000 216° Southwest 470 541 36,000  Level Gander Center
Sat 01:47:28 PM 55.6833 -71.5333 213° Southwest 470 541 36,000  Level Gander Center
Sat 01:48:28 PM 55.5833 -71.6500 213° Southwest 470 541 36,000  Level Gander Center
Sat 01:49:28 PM 55.4833 -71.7667 213° Southwest 470 541 36,000  Level Gander Center
Sat 01:50:28 PM 55.3667 -71.9167 216° Southwest 470 541 36,000  Level Gander Center
Sat 01:51:28 PM 55.2500 -72.0333 210° Southwest 470 541 36,000  Level Gander Center
Sat 01:52:28 PM 55.1500 -72.1500 214° Southwest 470 541 36,000  Level Gander Center
Sat 01:53:28 PM 55.0500 -72.2833 217° Southwest 470 541 36,000  Level Gander Center
Sat 01:54:28 PM 54.9333 -72.4000 210° Southwest 470 541 36,000  Level Gander Center
Sat 01:55:28 PM 54.8333 -72.5167 214° Southwest 460 529 36,000  Level Gander Center
Sat 01:56:28 PM 54.7333 -72.6333 214° Southwest 460 529 36,000  Level Gander Center
Sat 01:57:28 PM 54.6167 -72.7500 210° Southwest 460 529 36,000  Level Gander Center
Sat 01:58:28 PM 54.5000 -72.8833 214° Southwest 460 529 36,000  Level Gander Center
Sat 01:59:28 PM 54.4000 -73.0000 214° Southwest 460 529 36,000  Level Gander Center
Sat 02:00:28 PM 54.2833 -73.1167 210° Southwest 460 529 36,000  Level Gander Center
Sat 02:01:28 PM 54.1833 -73.2333 214° Southwest 460 529 36,000  Level Gander Center
Sat 02:02:28 PM 54.0667 -73.3500 210° Southwest 460 529 36,000  Level Gander Center
Sat 02:03:28 PM 53.9667 -73.4500 210° Southwest 460 529 36,000  Level Gander Center
Sat 02:04:28 PM 53.8667 -73.5667 215° Southwest 460 529 36,000  Level Gander Center
Sat 02:05:28 PM 53.7500 -73.6833 211° Southwest 460 529 36,000  Level Gander Center
Sat 02:06:28 PM 53.6333 -73.7833 207° Southwest 460 529 36,000  Level Gander Center
Sat 02:07:28 PM 53.5333 -73.9000 215° Southwest 460 529 36,000  Level Gander Center
Sat 02:08:28 PM 53.4167 -73.9833 203° Southwest 450 518 36,000  Level Gander Center
Sat 02:09:28 PM 53.3000 -74.0833 207° Southwest 460 529 36,000  Level Gander Center
Sat 02:10:28 PM 53.1667 -74.1833 204° Southwest 460 529 36,000  Level Gander Center
Sat 02:11:28 PM 53.0667 -74.2667 207° Southwest 460 529 36,000  Level Gander Center
Sat 02:12:28 PM 52.9500 -74.3667 207° Southwest 460 529 36,000  Level Gander Center
Sat 02:13:28 PM 52.8333 -74.4500 203° Southwest 450 518 36,000  Level Gander Center
Sat 02:14:28 PM 52.7333 -74.5667 215° Southwest 450 518 36,000  Level Gander Center
Sat 02:15:28 PM 52.6167 -74.6333 199° South 450 518 36,000  Level Gander Center
Sat 02:16:28 PM 52.5000 -74.7333 208° Southwest 450 518 36,000  Level Gander Center
Sat 02:17:28 PM 52.4000 -74.8167 207° Southwest 450 518 36,000  Level Gander Center
Sat 02:18:28 PM 52.2833 -74.9000 204° Southwest 450 518 36,000  Level Gander Center
Sat 02:19:28 PM 52.1667 -75.0000 208° Southwest 450 518 36,000  Level Gander Center
Sat 02:20:28 PM 52.0667 -75.0667 202° Southwest 450 518 36,000  Level Gander Center
Sat 02:21:28 PM 51.9500 -75.1833 212° Southwest 450 518 36,000  Level Gander Center
Sat 02:22:28 PM 51.8333 -75.2833 208° Southwest 450 518 36,000  Level Gander Center
Sat 02:23:28 PM 51.7167 -75.3500 199° South 450 518 36,000  Level Gander Center
Sat 02:24:28 PM 51.6167 -75.4333 207° Southwest 450 518 36,000  Level Gander Center
Sat 02:25:28 PM 51.5000 -75.5333 208° Southwest 450 518 36,000  Level Gander Center
Sat 02:26:28 PM 51.4000 -75.6000 203° Southwest 450 518 36,000  Level Gander Center
Sat 02:27:31 PM 51.2667 -75.6500 193° South 450 518 36,000  Level Montreal Center
Sat 02:28:31 PM 51.1500 -75.7167 200° South 440 506 36,000  Level Montreal Center
Sat 02:29:31 PM 51.0333 -75.8333 212° Southwest 450 518 36,000  Level Montreal Center
Sat 02:30:31 PM 50.9333 -75.9167 208° Southwest 440 506 36,000  Level Montreal Center
Sat 02:31:31 PM 50.8167 -76.0000 204° Southwest 440 506 36,000  Level Montreal Center
Sat 02:32:31 PM 50.7000 -76.0667 200° South 440 506 36,000  Level Montreal Center
Sat 02:33:31 PM 50.6000 -76.1500 208° Southwest 440 506 36,000  Level Montreal Center
Sat 02:34:31 PM 50.4833 -76.2333 204° Southwest 440 506 36,000  Level Montreal Center
Sat 02:35:31 PM 50.3833 -76.3167 208° Southwest 440 506 36,000  Level Montreal Center
Sat 02:36:31 PM 50.2667 -76.3833 200° South 440 506 36,000  Level Montreal Center
Sat 02:37:31 PM 50.1667 -76.4667 208° Southwest 430 495 36,000  Level Montreal Center
Sat 02:38:31 PM 50.0333 -76.5500 202° Southwest 440 506 36,000  Level Montreal Center
Sat 02:39:31 PM 49.9167 -76.6167 200° South 430 495 36,000  Level Montreal Center
Sat 02:40:31 PM 49.8000 -76.7167 209° Southwest 430 495 36,000  Level Montreal Center
Sat 02:41:31 PM 49.7000 -76.7667 198° South 430 495 36,000  Level Montreal Center
Sat 02:42:31 PM 49.5833 -76.8667 209° Southwest 440 506 36,000  Level Montreal Center
Sat 02:43:31 PM 49.4833 -76.9500 208° Southwest 430 495 36,000  Level Montreal Center
Sat 02:44:31 PM 49.3667 -77.0167 200° South 460 529 36,000  Level Montreal Center
Sat 02:45:31 PM 49.2667 -77.1000 209° Southwest 430 495 36,000  Level Montreal Center
Sat 02:46:31 PM 49.1500 -77.1667 200° South 430 495 36,000  Level Montreal Center
Sat 02:47:31 PM 49.0333 -77.2500 205° Southwest 440 506 36,000  Level Montreal Center
Sat 02:48:31 PM 48.9167 -77.3167 201° Southwest 450 518 36,000  Level Montreal Center
Sat 02:49:31 PM 48.8000 -77.4000 205° Southwest 450 518 36,000  Level Montreal Center
Sat 02:50:31 PM 48.6833 -77.4667 201° Southwest 440 506 36,000  Level Montreal Center
Sat 02:51:31 PM 48.5667 -77.5667 210° Southwest 440 506 36,000  Level Montreal Center
Sat 02:52:31 PM 48.4667 -77.6333 204° Southwest 440 506 36,000  Level Montreal Center
Sat 02:53:31 PM 48.3500 -77.7167 205° Southwest 440 506 36,000  Level Montreal Center
Sat 02:54:31 PM 48.2500 -77.7833 204° Southwest 440 506 36,000  Level Montreal Center
Sat 02:55:31 PM 48.1333 -77.8500 201° Southwest 430 495 36,000  Level Montreal Center
Sat 02:56:31 PM 48.0167 -77.9333 206° Southwest 430 495 36,000  Level Montreal Center
Sat 02:57:31 PM 47.9000 -77.9667 191° South 430 495 36,000  Level Montreal Center
Sat 02:58:31 PM 47.7833 -78.0333 201° Southwest 440 506 36,000  Level Montreal Center
Sat 02:59:31 PM 47.6667 -78.1167 206° Southwest 430 495 36,000  Level Montreal Center
Sat 03:00:31 PM 47.5667 -78.1833 204° Southwest 430 495 36,000  Level Montreal Center
Sat 03:01:31 PM 47.4500 -78.2500 201° Southwest 430 495 36,000  Level Montreal Center
Sat 03:02:31 PM 47.3500 -78.3000 199° South 430 495 36,000  Level Montreal Center
Sat 03:08:02 PM 46.7405 -78.6421 201° Southwest 425 489 36,000  Level FlightAware ADS-B (CYYZ)
Sat 03:08:48 PM 46.6479 -78.6934 201° Southwest 426 490 36,000  Level FlightAware ADS-B (CYYZ)
Sat 03:09:35 PM 46.5633 -78.7401 201° Southwest 426 490 36,000  Level FlightAware ADS-B (CYYZ)
Sat 03:10:20 PM 46.4749 -78.7889 201° Southwest 426 490 36,000  Level FlightAware ADS-B (CYYZ)
Sat 03:11:05 PM 46.3913 -78.8349 201° Southwest 430 495 36,000  Level FlightAware ADS-B (CYYZ)
Sat 03:11:50 PM 46.3190 -78.8744 201° Southwest 430 495 36,000  Level FlightAware ADS-B (CYYZ)
Sat 03:12:35 PM 46.2241 -78.9262 201° Southwest 430 495 36,000  Level FlightAware ADS-B (CYYZ)
Sat 03:13:20 PM 46.1461 -78.9686 201° Southwest 428 493 36,000  Level FlightAware ADS-B (CYYZ)
Sat 03:14:06 PM 46.0560 -79.0174 201° Southwest 425 489 36,000  Level FlightAware ADS-B (CYYZ)
Sat 03:14:51 PM 45.9757 -79.0608 201° Southwest 423 487 36,000  Level FlightAware ADS-B (CYYZ)
Sat 03:15:36 PM 45.8964 -79.1036 201° Southwest 420 483 36,000  Level FlightAware ADS-B (CYYZ)
Sat 03:16:06 PM 45.8428 -79.1323 201° Southwest 420 483 36,000  Level FlightAware ADS-B (CYYZ)
Sat 03:16:36 PM 45.7834 -79.1642 201° Southwest 421 484 36,000  Level FlightAware ADS-B (CYYZ)
Sat 03:17:06 PM 45.7274 -79.1942 201° Southwest 421 484 36,000  Level FlightAware ADS-B (CYYZ)
Sat 03:17:51 PM 45.6447 -79.2383 201° Southwest 423 487 36,000  Level FlightAware ADS-B (CYYZ)
Sat 03:18:20 PM 45.5915 -79.2666 201° Southwest 422 486 36,000  Level FlightAware ADS-B (CYYZ)
Sat 03:19:06 PM 45.5077 -79.3110 201° Southwest 421 484 36,000  Level FlightAware ADS-B (CYYZ)
Sat 03:19:36 PM 45.4584 -79.3372 201° Southwest 420 483 36,000  Level FlightAware ADS-B (CYYZ)
Sat 03:20:07 PM 45.3994 -79.3684 201° Southwest 418 481 36,000  Level FlightAware ADS-B (CYYZ)
Sat 03:20:37 PM 45.3433 -79.3980 201° Southwest 419 482 36,000  Level FlightAware ADS-B (CYYZ)
Sat 03:21:07 PM 45.2891 -79.4265 201° Southwest 419 482 36,000  Level FlightAware ADS-B (CYYZ)
Sat 03:21:37 PM 45.2348 -79.4550 201° Southwest 420 483 36,000  Level FlightAware ADS-B (CYYZ)
Sat 03:22:22 PM 45.1551 -79.4967 201° Southwest 421 484 36,000  Level FlightAware ADS-B (CYYZ)
Sat 03:22:52 PM 45.0961 -79.5274 201° Southwest 422 486 36,000  Level FlightAware ADS-B (CYYZ)
Sat 03:23:37 PM 45.0152 -79.5695 201° Southwest 422 486 36,000  Level FlightAware ADS-B (CYYZ)
Sat 03:24:23 PM 44.9306 -79.6135 201° Southwest 423 487 36,000  Level FlightAware ADS-B (CYYZ)
Sat 03:24:43 PM 44.8950 -79.6320 200° South 423 487 36,000  Level FlightAware ADS-B (EPLB / LUZ)
Sat 03:25:08 PM 44.8481 -79.6562 201° Southwest 422 486 36,000  Level FlightAware ADS-B (CYYZ)
Sat 03:25:23 PM 44.8950 -79.6320 200° South 422 486 36,000  Level FlightAware ADS-B (EPLB / LUZ)
Sat 03:25:38 PM 44.7923 -79.6850 201° Southwest 421 484 36,000  Level FlightAware ADS-B (CYYZ)
Sat 03:26:08 PM 44.7397 -79.7122 201° Southwest 420 483 36,000  Level FlightAware ADS-B (CYYZ)
Sat 03:26:38 PM 44.6829 -79.7414 201° Southwest 421 484 36,000  Level FlightAware ADS-B (CYYZ)
Sat 03:27:08 PM 44.6291 -79.7692 201° Southwest 422 486 36,000  Level FlightAware ADS-B (CYYZ)
Sat 03:27:53 PM 44.5491 -79.8220 211° Southwest 417 480 36,000  Level FlightAware ADS-B (CYYZ)
Sat 03:28:32 PM 44.4866 -79.8787 214° Southwest 417 480 36,000  Level FlightAware ADS-B (CYYZ)
Sat 03:29:06 PM 44.4402 -79.9212 213° Southwest 419 482 36,000  Level FlightAware ADS-B (EPLB / LUZ)
Sat 03:29:08 PM 44.4270 -79.9331 214° Southwest 418 481 36,000  Level FlightAware ADS-B (CYYZ)
Sat 03:29:38 PM 44.3788 -79.9765 213° Southwest 418 481 36,000  Level FlightAware ADS-B (CYYZ)
Sat 03:29:45 PM 44.3723 -79.9824 213° Southwest 418 481 36,000  Level FlightAware ADS-B (EPLB / LUZ)
Sat 03:30:17 PM 44.3263 -80.0237 213° Southwest 415 478 36,000  Level FlightAware ADS-B (EPLB / LUZ)
Sat 03:30:24 PM 44.3057 -80.0421 213° Southwest 411 473 36,000  Level FlightAware ADS-B (CYYZ)
Sat 03:30:54 PM 44.2574 -80.0852 213° Southwest 404 465 36,000  Level FlightAware ADS-B (CYYZ)
Sat 03:31:24 PM 44.2109 -80.1269 213° Southwest 404 465 36,000  Level FlightAware ADS-B (CYYZ)
Sat 03:31:54 PM 44.1634 -80.1692 213° Southwest 401 461 36,000  Level FlightAware ADS-B (CYYZ)
Sat 03:32:24 PM 44.1173 -80.2103 213° Southwest 398 458 36,000  Level FlightAware ADS-B (CYYZ)
Sat 03:32:46 PM 44.0849 -80.2391 213° Southwest 397 457 36,000  Level FlightAware ADS-B (EPLB / LUZ)
Sat 03:32:54 PM 44.0704 -80.2520 213° Southwest 396 456 36,000  Level FlightAware ADS-B (CYYZ)
Sat 03:33:24 PM 44.0254 -80.2918 213° Southwest 396 456 36,000  Level FlightAware ADS-B (CYYZ)
Sat 03:33:25 PM 44.0235 -80.2936 213° Southwest 396 456 36,000  Level FlightAware ADS-B (EPLB / LUZ)
Sat 03:33:56 PM 44.0501 -80.2700 213° Southwest 396 456 36,000  Level FlightAware ADS-B (CYHM)
Sat 03:34:09 PM 43.9539 -80.3550 213° Southwest 396 456 36,000  Level FlightAware ADS-B (CYYZ)
Sat 03:34:39 PM 43.9081 -80.3955 212° Southwest 396 456 36,000  Level FlightAware ADS-B (EPLB / LUZ)
Sat 03:34:54 PM 43.8843 -80.4163 213° Southwest 396 456 36,000  Level FlightAware ADS-B (CYYZ)
Sat 03:35:13 PM 43.8573 -80.4401 212° Southwest 394 453 36,000  Level FlightAware ADS-B (EPLB / LUZ)
Sat 03:35:39 PM 43.8147 -80.4774 213° Southwest 395 455 36,000  Level FlightAware ADS-B (CYYZ)
Sat 03:35:46 PM 43.8083 -80.4830 212° Southwest 396 456 36,000  Level FlightAware ADS-B (EPLB / LUZ)
Sat 03:36:10 PM 43.7683 -80.5180 213° Southwest 394 453 36,000  Level FlightAware ADS-B (CYYZ)
Sat 03:36:46 PM 43.7130 -80.5665 212° Southwest 396 456 36,000  Level FlightAware ADS-B (EPLB / LUZ)
Sat 03:36:55 PM 43.6995 -80.5783 213° Southwest 395 455 36,000  Level FlightAware ADS-B (CYYZ)
Sat 03:37:25 PM 43.6523 -80.6196 213° Southwest 397 457 36,000  Level FlightAware ADS-B (CYYZ)
Sat 03:37:55 PM 43.6055 -80.6604 213° Southwest 398 458 36,000  Level FlightAware ADS-B (CYYZ)
Sat 03:37:56 PM 43.6065 -80.6595 212° Southwest 399 459 36,000  Level FlightAware ADS-B (CYHM)
Sat 03:38:25 PM 43.5604 -80.6996 213° Southwest 400 460 36,000  Level FlightAware ADS-B (CYYZ)
Sat 03:38:48 PM 43.5228 -80.7323 212° Southwest 401 461 36,000  Level FlightAware ADS-B (EPLB / LUZ)
Sat 03:38:55 PM 43.5112 -80.7424 213° Southwest 400 460 36,000  Level FlightAware ADS-B (CYYZ)
Sat 03:39:33 PM 43.4531 -80.7928 212° Southwest 397 457 36,000  Level FlightAware ADS-B (EPLB / LUZ)
Sat 03:39:40 PM 43.4415 -80.8027 213° Southwest 396 456 36,000  Level FlightAware ADS-B (CYYZ)
Sat 03:40:06 PM 43.4014 -80.8374 212° Southwest 398 458 36,000  Level FlightAware ADS-B (EPLB / LUZ)
Sat 03:40:10 PM 43.3954 -80.8426 213° Southwest 398 458 36,000  Level FlightAware ADS-B (CYYZ)
Sat 03:40:40 PM 43.3497 -80.8820 213° Southwest 398 458 36,000  Level FlightAware ADS-B (CYYZ)
Sat 03:41:05 PM 43.3088 -80.9172 212° Southwest 398 458 36,000  Level FlightAware ADS-B (EPLB / LUZ)
Sat 03:41:11 PM 43.3025 -80.9225 213° Southwest 398 458 36,000  Level FlightAware ADS-B (CYYZ)
Sat 03:41:48 PM 43.2440 -80.9729 212° Southwest 400 460 36,000  Level FlightAware ADS-B (EPLB / LUZ)
Sat 03:41:56 PM 43.2320 -80.9832 213° Southwest 399 459 36,000  Level FlightAware ADS-B (CYYZ)
Sat 03:42:26 PM 43.1839 -81.0244 212° Southwest 399 459 36,000  Level FlightAware ADS-B (CYYZ)
Sat 03:42:36 PM 43.1718 -81.0347 212° Southwest 399 459 36,000  Level FlightAware ADS-B (EPLB / LUZ)
Sat 03:42:56 PM 43.1376 -81.0640 213° Southwest 398 458 36,000  Level FlightAware ADS-B (CYYZ)
Sat 03:43:26 PM 43.0891 -81.1054 213° Southwest 401 461 36,000  Level FlightAware ADS-B (CYYZ)
Sat 03:43:54 PM 43.0481 -81.1400 210° Southwest 400 460 36,000  Level FlightAware ADS-B (EPLB / LUZ)
Sat 03:43:56 PM 43.0416 -81.1450 210° Southwest 400 460 36,000  Level FlightAware ADS-B (CYYZ)
Sat 03:44:26 PM 42.9908 -81.1771 204° Southwest 399 459 36,000  Level FlightAware ADS-B (CYYZ)
Sat 03:44:34 PM 42.9779 -81.1849 204° Southwest 401 461 36,000  Level FlightAware ADS-B (EPLB / LUZ)
Sat 03:44:56 PM 42.9402 -81.2087 205° Southwest 400 460 36,000  Level FlightAware ADS-B (CYYZ)
Sat 03:45:26 PM 42.8914 -81.2394 205° Southwest 401 461 36,000  Level FlightAware ADS-B (CYYZ)
Sat 03:45:45 PM 42.8586 -81.2598 205° Southwest 402 463 36,000  Level FlightAware ADS-B (EPLB / LUZ)
Sat 03:45:56 PM 42.8403 -81.2712 205° Southwest 402 463 36,000  Level FlightAware ADS-B (CYYZ)
Sat 03:46:18 PM 42.8055 -81.2926 204° Southwest 403 464 36,000  Level FlightAware ADS-B (EPLB / LUZ)
Sat 03:46:42 PM 42.7632 -81.3187 205° Southwest 403 464 36,000  Level FlightAware ADS-B (CYYZ)
Sat 03:46:59 PM 42.7399 -81.3330 204° Southwest 404 465 36,000  Level FlightAware ADS-B (EPLB / LUZ)
Sat 03:47:27 PM 42.6854 -81.3664 205° Southwest 404 465 36,000  Level FlightAware ADS-B (CYYZ)
Sat 03:47:31 PM 42.6782 -81.3709 204° Southwest 404 465 36,000  Level FlightAware ADS-B (EPLB / LUZ)
Sat 03:48:12 PM 42.6133 -81.4106 205° Southwest 405 466 36,000  Level FlightAware ADS-B (CYYZ)
Sat 03:48:57 PM 42.5325 -81.4599 205° Southwest 405 466 36,000  Level FlightAware ADS-B (CYYZ)
Sat 03:49:42 PM 42.4543 -81.5075 205° Southwest 406 467 36,000  Level FlightAware ADS-B (CYYZ)
Sat 03:50:12 PM 42.4068 -81.5364 205° Southwest 408 470 36,000  Level FlightAware ADS-B (CYYZ)
Sat 03:50:57 PM 42.3294 -81.5832 205° Southwest 410 472 36,000  Level FlightAware ADS-B (CYYZ)
Sat 03:51:42 PM 42.2472 -81.6329 205° Southwest 413 475 36,000  Level FlightAware ADS-B (CYYZ)
Sat 03:52:27 PM 42.1689 -81.6804 205° Southwest 413 475 36,000  Level FlightAware ADS-B (CYYZ)
Sat 03:52:57 PM 42.1171 -81.7115 205° Southwest 412 474 36,000  Level FlightAware ADS-B (CYYZ)
Sat 03:53:43 PM 42.0388 -81.7585 205° Southwest 412 474 36,000  Level FlightAware ADS-B (CYYZ)
Sat 03:54:12 PM 42.0139 -81.7734 205° Southwest 411 473 36,000  Level FlightAware ADS-B (CYYZ)
Sat 03:54:43 PM 41.9362 -81.8198 205° Southwest 414 476 36,000  Level FlightAware ADS-B (CYYZ)
Sat 03:55:28 PM 41.8534 -81.8693 205° Southwest 417 480 36,000  Level FlightAware ADS-B (CYYZ)
Sat 03:55:58 PM 41.7995 -81.9014 204° Southwest 418 481 36,000  Level FlightAware ADS-B (CYYZ)
Sat 03:56:08 PM 41.7822 -81.9117 204° Southwest 418 481 36,000  Level FlightAware ADS-B (CYYZ)
Sat 03:57:13 PM 41.6676 -81.9797 204° Southwest 419 482 36,000  Level FlightAware ADS-B (CYYZ)
Sat 03:57:59 PM 41.5857 -82.0282 205° Southwest 420 483 36,000  Level FlightAware ADS-B (CYYZ)
Sat 03:58:29 PM 41.5679 -82.0387 204° Southwest 421 484 36,000  Level FlightAware ADS-B (CYYZ)
Sat 03:58:59 PM 41.4808 -82.0901 204° Southwest 423 487 36,000  Level FlightAware ADS-B (CYYZ)
Sat 03:59:29 PM 41.4293 -82.1204 204° Southwest 423 487 36,000  Level FlightAware ADS-B (CYYZ)
Sat 04:00:13 PM 41.3595 -82.1595 198° South 421 484 36,000  Level FlightAware ADS-B (CYYZ)
Sat 04:00:53 PM 41.2909 -82.1849 196° South 416 479 36,000  Level FlightAware ADS-B (CYYZ)
Sat 04:01:14 PM 41.2349 -82.2057 196° South 414 476 36,000  Level FlightAware ADS-B (CYYZ)
Sat 04:02:12 PM 41.1319 -82.2442 196° South 411 473 36,000  Level Cleveland Center
Sat 04:03:14 PM 41.0228 -82.2819 195° South 408 470 36,000  Level Cleveland Center
Sat 04:08:39 PM 40.4293 -82.4916 195° South 404 465 36,000  Level FlightAware ADS-B (EGCN / DSA)
Sat 04:09:24 PM 40.3539 -82.5179 195° South 404 465 36,000  Level FlightAware ADS-B (EGCN / DSA)
Sat 04:10:09 PM 40.2672 -82.5481 195° South 404 465 36,000  Level FlightAware ADS-B (EGCN / DSA)
Sat 04:10:39 PM 40.2146 -82.5664 195° South 403 464 36,000  Level FlightAware ADS-B (EGCN / DSA)
Sat 04:11:09 PM 40.1623 -82.5828 190° South 404 465 36,000  Level FlightAware ADS-B (EGCN / DSA)
Sat 04:11:39 PM 40.1072 -82.5909 183° South 408 470 36,000  Level FlightAware ADS-B (EGCN / DSA)
Sat 04:12:09 PM 40.0482 -82.5947 183° South 407 468 36,000  Level FlightAware ADS-B (EGCN / DSA)
Sat 04:12:39 PM 39.9996 -82.5984 183° South 408 470 36,000  Level FlightAware ADS-B (EGCN / DSA)
Sat 04:13:09 PM 39.9352 -82.6030 183° South 408 470 36,000  Level FlightAware ADS-B (EGCN / DSA)
Sat 04:13:41 PM 39.8807 -82.6068 183° South 407 468 36,000  Level FlightAware ADS-B (EGCN / DSA)
Sat 04:14:11 PM 39.8214 -82.6109 183° South 406 467 36,000  Level FlightAware ADS-B (EGCN / DSA)
Sat 04:14:42 PM 39.7593 -82.6151 183° South 403 464 36,000  Level FlightAware ADS-B
Sat 04:15:15 PM 39.6981 -82.6192 183° South 400 460 36,000  Level FlightAware ADS-B
Sat 04:15:54 PM 39.6277 -82.6239 183° South 399 459 36,000  Level FlightAware ADS-B (EGCN / DSA)
Sat 04:16:24 PM 39.5720 -82.6277 183° South 398 458 36,000  Level FlightAware ADS-B (EGCN / DSA)
Sat 04:16:55 PM 39.5184 -82.6312 183° South 397 457 36,000  Level FlightAware ADS-B (EGCN / DSA)
Sat 04:17:30 PM 39.4491 -82.6359 183° South 398 458 36,000  Level FlightAware ADS-B
Sat 04:18:01 PM 39.3934 -82.6396 183° South 400 460 36,000  Level FlightAware ADS-B
Sat 04:18:39 PM 39.3308 -82.6437 183° South 400 460 36,000  Level FlightAware ADS-B (EGCN / DSA)
Sat 04:19:10 PM 39.2647 -82.6482 183° South 399 459 36,000  Level FlightAware ADS-B
Sat 04:19:49 PM 39.1941 -82.6528 183° South 398 458 36,000  Level FlightAware ADS-B
Sat 04:20:20 PM 39.1382 -82.6565 183° South 397 457 36,000  Level FlightAware ADS-B
Sat 04:21:07 PM 39.0501 -82.6624 183° South 398 458 36,000  Level FlightAware ADS-B
Sat 04:21:38 PM 38.9929 -82.6662 183° South 398 458 36,000  Level FlightAware ADS-B
Sat 04:22:08 PM 38.9387 -82.6697 183° South 399 459 36,000  Level FlightAware ADS-B
Sat 04:22:38 PM 38.8839 -82.6733 183° South 399 459 36,000  Level FlightAware ADS-B
Sat 04:23:09 PM 38.8269 -82.6771 183° South 399 459 36,000  Level FlightAware ADS-B
Sat 04:23:40 PM 38.7719 -82.6808 183° South 393 452 36,000  Level FlightAware ADS-B
Sat 04:24:10 PM 38.7158 -82.6845 183° South 394 453 36,000  Level FlightAware ADS-B
Sat 04:24:49 PM 38.6435 -82.6893 183° South 402 463 36,000  Level FlightAware ADS-B
Sat 04:25:19 PM 38.5966 -82.6924 183° South 410 472 36,000  Level FlightAware ADS-B
Sat 04:26:13 PM 38.4874 -82.6993 183° South 411 473 36,000  Level FlightAware ADS-B
Sat 04:27:17 PM 38.3844 -82.7053 183° South 408 470 36,000  Level Indianapolis Center
Sat 04:28:18 PM 38.2531 -82.7161 184° South 408 470 36,000  Level Indianapolis Center
Sat 04:29:20 PM 38.1383 -82.7228 183° South 408 470 36,000  Level Indianapolis Center
Sat 04:30:22 PM 38.0200 -82.7303 183° South 418 481 36,000  Level Indianapolis Center
Sat 04:31:23 PM 37.9042 -82.7375 183° South 420 483 36,000  Level Indianapolis Center
Sat 04:32:25 PM 37.7906 -82.7444 183° South 412 474 36,000  Level Indianapolis Center
Sat 04:33:27 PM 37.6767 -82.7661 189° South 412 474 36,000  Level Indianapolis Center
Sat 04:34:28 PM 37.5708 -82.8200 202° Southwest 412 474 36,000  Level Indianapolis Center
Sat 04:35:30 PM 37.4542 -82.9008 209° Southwest 411 473 36,000  Level Indianapolis Center
Sat 04:36:31 PM 37.3517 -82.9672 207° Southwest 412 474 36,000  Level Indianapolis Center
Sat 04:37:33 PM 37.2503 -83.0331 207° Southwest 412 474 36,000  Level Indianapolis Center
Sat 04:38:35 PM 37.1483 -83.0997 208° Southwest 412 474 36,000  Level Indianapolis Center
Sat 04:39:36 PM 37.0478 -83.1664 208° Southwest 412 474 36,000  Level Indianapolis Center
Sat 04:40:38 PM 36.9292 -83.2422 207° Southwest 413 475 36,000  Level Indianapolis Center
Sat 04:41:39 PM 36.8275 -83.3081 207° Southwest 413 475 36,000  Level Indianapolis Center
Sat 04:42:41 PM 36.7258 -83.3733 207° Southwest 413 475 36,000  Level Indianapolis Center
Sat 04:43:42 PM 36.6247 -83.4372 207° Southwest 412 474 36,000  Level Indianapolis Center
Sat 04:44:44 PM 36.5242 -83.5019 207° Southwest 412 474 36,000  Level Indianapolis Center
Sat 04:45:45 PM 36.4192 -83.5686 207° Southwest 412 474 36,000  Level Indianapolis Center
Sat 04:46:47 PM 36.3175 -83.6331 207° Southwest 410 472 36,000  Level Indianapolis Center
Sat 04:47:48 PM 36.2161 -83.6981 207° Southwest 410 472 36,000  Level Indianapolis Center
Sat 04:48:50 PM 36.1119 -83.7633 207° Southwest 412 474 36,000  Level Indianapolis Center
Sat 04:49:51 PM 36.0081 -83.8286 207° Southwest 413 475 36,000  Level Indianapolis Center
Sat 04:50:53 PM 35.8792 -83.8964 203° Southwest 416 479 36,000  Level Indianapolis Center
Sat 04:51:54 PM 35.7622 -83.9286 193° South 422 486 36,000  Level Indianapolis Center
Sat 04:53:14 PM 35.6181 -83.9647 192° South 428 493 36,000  Level Atlanta Center
Sat 04:54:14 PM 35.4972 -83.9928 191° South 435 501 36,000  Level Atlanta Center
Sat 04:55:14 PM 35.3803 -84.0233 192° South 435 501 36,000  Level Atlanta Center
Sat 04:56:14 PM 35.2614 -84.0514 191° South 435 501 36,000  Level Atlanta Center
Sat 04:57:14 PM 35.1425 -84.0794 191° South 430 495 36,000  Level Atlanta Center
Sat 04:58:14 PM 35.0256 -84.1097 192° South 430 495 36,000  Level Atlanta Center
Sat 04:59:14 PM 34.9044 -84.1375 191° South 430 495 36,000  Level Atlanta Center
Sat 05:00:14 PM 34.7833 -84.1653 191° South 435 501 36,000  Level Atlanta Center
Sat 05:01:14 PM 34.6667 -84.1928 191° South 435 501 36,000  Level Atlanta Center
Sat 05:02:14 PM 34.5517 -84.2203 191° South 430 495 36,000  Level Atlanta Center
Sat 05:03:14 PM 34.4306 -84.2478 191° South 430 495 36,000  Level Atlanta Center
Sat 05:05:14 PM 34.1925 -84.3050 191° South 430 495 36,000  Level Atlanta Center
Sat 05:06:14 PM 34.0528 -84.3372 191° South 441 507 36,000  Level Atlanta Center
Sat 05:07:14 PM 33.9378 -84.3669 192° South 448 516 36,000  Level Atlanta Center
Sat 05:08:14 PM 33.8106 -84.3964 191° South 448 516 36,000  Level Atlanta Center
Sat 05:09:14 PM 33.6892 -84.4233 190° South 453 521 36,000  Level Atlanta Center
Sat 05:10:14 PM 33.5639 -84.4353 185° South 453 521 36,000  Level Atlanta Center
Sat 05:11:14 PM 33.4389 -84.4322 179° South 453 521 36,000  Level Atlanta Center
Sat 05:12:14 PM 33.3156 -84.4292 179° South 453 521 36,000  Level Atlanta Center
Sat 05:13:14 PM 33.1883 -84.4286 180° South 453 521 36,000  Level Atlanta Center
Sat 05:14:14 PM 33.0631 -84.4281 180° South 458 527 36,000  Level Atlanta Center
Sat 05:15:14 PM 32.9358 -84.4225 178° South 458 527 36,000 -450 Level Atlanta Center
Sat 05:16:14 PM 32.8106 -84.4194 179° South 458 527 35,100 -500 Descending Atlanta Center
Sat 05:17:14 PM 32.6853 -84.4189 180° South 458 527 35,000 -50 Descending Atlanta Center
Sat 05:18:14 PM 32.5600 -84.4158 179° South 458 527 35,000  Level Atlanta Center
Sat 05:19:14 PM 32.4328 -84.4106 178° South 458 527 35,000  Level Atlanta Center
Sat 05:20:14 PM 32.3075 -84.4100 180° South 458 527 35,000  Level Atlanta Center
Sat 05:21:14 PM 32.1803 -84.4069 179° South 458 527 35,000  Level Atlanta Center
Sat 05:22:28 PM 32.0364 -84.4022 178° South 437 503 35,000  Level Jacksonville Center
Sat 05:23:28 PM 31.9050 -84.4025 180° South 451 519 35,000  Level Jacksonville Center
Sat 05:24:28 PM 31.7797 -84.3981 178° South 456 525 35,000  Level Jacksonville Center
Sat 05:30:36 PM 30.9957 -84.1472 159° South 474 545 35,000  Level FlightAware ADS-B (KONZ)
Sat 05:31:07 PM 30.9337 -84.1183 158° South 474 545 35,000  Level FlightAware ADS-B (KONZ)
Sat 05:32:00 PM 30.8261 -84.0686 159° South 476 548 35,000  Level FlightAware ADS-B (KONZ)
Sat 05:32:30 PM 30.7635 -84.0401 159° South 477 549 35,000  Level FlightAware ADS-B (KONZ)
Sat 05:33:00 PM 30.7005 -84.0115 159° South 475 547 35,000  Level FlightAware ADS-B (KONZ)
Sat 05:33:30 PM 30.6394 -83.9838 159° South 474 545 35,000  Level FlightAware ADS-B (KONZ)
Sat 05:34:01 PM 30.5831 -83.9584 159° South 475 547 35,000  Level FlightAware ADS-B (KONZ)
Sat 05:34:40 PM 30.4964 -83.9193 159° South 476 548 35,000  Level FlightAware ADS-B (KONZ)
Sat 05:35:11 PM 30.4366 -83.8927 159° South 474 545 35,000  Level FlightAware ADS-B (KONZ)
Sat 05:35:49 PM 30.3555 -83.8570 159° South 475 547 35,000  Level FlightAware ADS-B (KONZ)
Sat 05:36:30 PM 30.2843 -83.8256 159° South 474 545 35,000  Level FlightAware ADS-B (KONZ)
Sat 05:37:01 PM 30.2078 -83.7918 159° South 470 541 35,000  Level FlightAware ADS-B (KONZ)
Sat 05:37:39 PM 30.1298 -83.7574 159° South 469 540 35,000  Level FlightAware ADS-B (KONZ)
Sat 05:38:12 PM 30.0626 -83.7279 159° South 470 541 35,000  Level FlightAware ADS-B (KONZ)
Sat 05:38:50 PM 29.9909 -83.6964 159° South 471 542 35,000  Level FlightAware ADS-B (KONZ)
Sat 05:39:28 PM 29.9175 -83.6642 159° South 470 541 35,000  Level Jacksonville Center
Sat 05:40:28 PM 29.7947 -83.6153 161° South 470 541 35,000  Level Jacksonville Center
Sat 05:41:28 PM 29.6719 -83.5594 158° South 470 541 35,000  Level Jacksonville Center
Sat 05:42:28 PM 29.5511 -83.5061 159° South 470 541 35,000  Level Jacksonville Center
Sat 05:43:28 PM 29.4261 -83.4528 160° South 470 541 35,000  Level Jacksonville Center
Sat 05:44:28 PM 29.3053 -83.3997 159° South 470 541 35,000  Level Jacksonville Center
Sat 05:49:56 PM 28.6301 -83.1074 159° South 467 537 35,000  Level FlightAware ADS-B
Sat 05:51:27 PM 28.4476 -83.0298 159° South 461 531 35,000  Level FlightAware ADS-B
Sat 05:53:37 PM 28.1883 -82.9198 160° South 462 532 35,000  Level FlightAware ADS-B
Sat 05:54:57 PM 28.0274 -82.8518 160° South 463 533 35,000  Level FlightAware ADS-B
Sat 05:57:24 PM 27.7341 -82.7286 159° South 465 535 35,000  Level FlightAware ADS-B (KEYW)
Sat 05:57:51 PM 27.6769 -82.7046 160° South 463 533 35,000  Level FlightAware ADS-B
Sat 05:58:33 PM 27.5892 -82.6679 159° South 461 531 35,000  Level FlightAware ADS-B (KEYW)
Sat 05:58:35 PM 27.5930 -82.6695 160° South 461 531 35,000  Level FlightAware ADS-B
Sat 05:59:14 PM 27.5121 -82.6357 159° South 459 528 35,000  Level FlightAware ADS-B (KEYW)
Sat 05:59:48 PM 27.4388 -82.6052 159° South 458 527 35,000  Level FlightAware ADS-B (KEYW)
Sat 06:00:18 PM 27.3844 -82.5825 160° South 459 528 35,000  Level FlightAware ADS-B
Sat 06:00:25 PM 27.3648 -82.5743 159° South 457 526 35,000  Level FlightAware ADS-B (KEYW)
Sat 06:00:53 PM 27.3134 -82.5530 160° South 459 528 35,000  Level FlightAware ADS-B
Sat 06:01:19 PM 27.2581 -82.5300 159° South 458 527 35,000  Level FlightAware ADS-B (KEYW)
Sat 06:02:03 PM 27.1734 -82.4948 159° South 460 529 35,000  Level FlightAware ADS-B (KEYW)
Sat 06:02:13 PM 27.1674 -82.4924 159° South 460 529 35,000  Level FlightAware ADS-B (KEYW)
Sat 06:03:34 PM 26.9888 -82.4184 159° South 461 531 35,000  Level FlightAware ADS-B (KEYW)
Sat 06:04:02 PM 26.9347 -82.3961 159° South 461 531 35,000 -712 Level FlightAware ADS-B (KEYW)
Sat 06:04:33 PM 26.8721 -82.3710 162° South 467 537 34,300 -1,200 Descending FlightAware ADS-B
Sat 06:04:52 PM 26.8496 -82.3658 177° South 464 534 34,000 -450 Descending FlightAware ADS-B
Sat 06:05:13 PM 26.7822 -82.3665 184° South 458 527 34,000  Level FlightAware ADS-B (KEYW)
Sat 06:05:33 PM 26.7441 -82.3686 183° South 460 529 34,000  Level FlightAware ADS-B
Sat 06:05:44 PM 26.7192 -82.3699 183° South 459 528 34,000  Level FlightAware ADS-B (KEYW)
Sat 06:06:13 PM 26.6685 -82.3725 183° South 456 525 34,000  Level FlightAware ADS-B
Sat 06:06:19 PM 26.6425 -82.3740 183° South 452 520 34,000  Level FlightAware ADS-B (KEYW)
Sat 06:07:05 PM 26.5475 -82.3792 183° South 455 524 34,000  Level FlightAware ADS-B (KEYW)
Sat 06:07:50 PM 26.4536 -82.3845 183° South 453 521 34,000  Level FlightAware ADS-B (KEYW)
Sat 06:08:35 PM 26.3577 -82.3898 183° South 454 522 34,000  Level FlightAware ADS-B (KEYW)
Sat 06:08:38 PM 26.3626 -82.3895 183° South 455 524 34,000  Level FlightAware ADS-B
Sat 06:09:18 PM 26.2709 -82.3947 183° South 457 526 34,000  Level FlightAware ADS-B
Sat 06:09:20 PM 26.2623 -82.3951 183° South 456 525 34,000  Level FlightAware ADS-B (KEYW)
Sat 06:10:00 PM 26.1814 -82.3997 183° South 459 528 34,000  Level FlightAware ADS-B
Sat 06:10:05 PM 26.1665 -82.4005 183° South 458 527 34,000  Level FlightAware ADS-B (KEYW)
Sat 06:10:35 PM 26.1042 -82.4039 183° South 456 525 34,000  Level FlightAware ADS-B (KEYW)
Sat 06:10:42 PM 26.1023 -82.4040 183° South 457 526 34,000  Level FlightAware ADS-B
Sat 06:11:06 PM 26.0388 -82.4076 183° South 455 524 34,000  Level FlightAware ADS-B (KEYW)
Sat 06:11:23 PM 26.0060 -82.4094 183° South 455 524 34,000  Level FlightAware ADS-B
Sat 06:11:51 PM 25.9462 -82.4127 183° South 455 524 34,000  Level FlightAware ADS-B (KEYW)
Sat 06:12:36 PM 25.8485 -82.4181 183° South 456 525 34,000  Level FlightAware ADS-B (KEYW)
Sat 06:13:13 PM 25.7997 -82.4208 183° South 459 528 34,000  Level FlightAware ADS-B
Sat 06:13:21 PM 25.7531 -82.4234 183° South 457 526 34,000  Level FlightAware ADS-B (KEYW)
Sat 06:14:06 PM 25.6579 -82.4287 183° South 456 525 34,000  Level FlightAware ADS-B (KEYW)
Sat 06:14:09 PM 25.6686 -82.4281 183° South 457 526 34,000  Level FlightAware ADS-B
Sat 06:14:51 PM 25.5657 -82.4338 183° South 453 521 34,000  Level FlightAware ADS-B (KEYW)
Sat 06:15:36 PM 25.4676 -82.4391 183° South 454 522 34,000  Level FlightAware ADS-B (KEYW)
Sat 06:16:21 PM 25.3729 -82.4443 183° South 454 522 34,000  Level FlightAware ADS-B (KEYW)
Sat 06:16:51 PM 25.3091 -82.4478 183° South 453 521 34,000  Level FlightAware ADS-B (KEYW)
Sat 06:17:37 PM 25.2138 -82.4530 183° South 454 522 34,000  Level FlightAware ADS-B (KEYW)
Sat 06:18:21 PM 25.1199 -82.4581 183° South 454 522 34,000  Level FlightAware ADS-B (KEYW)
Sat 06:19:07 PM 25.0250 -82.4633 183° South 455 524 34,000  Level FlightAware ADS-B (KEYW)
Sat 06:19:52 PM 24.9312 -82.4684 183° South 454 522 34,000 -133 Level FlightAware ADS-B (KEYW)
Sat 06:20:37 PM 24.8345 -82.4737 183° South 452 520 33,800 -667 Descending FlightAware ADS-B (KEYW)
Sat 06:21:22 PM 24.7407 -82.4788 183° South 447 514 33,000 -1,440 Descending FlightAware ADS-B (KEYW)
Sat 06:21:52 PM 24.6782 -82.4822 183° South 443 510 32,000 -1,770 Descending FlightAware ADS-B (KEYW)
Sat 06:22:23 PM 24.6173 -82.4855 183° South 439 505 31,200 -1,658 Descending FlightAware ADS-B (KEYW)
Sat 06:23:08 PM 24.5269 -82.4904 183° South 431 496 29,900 -1,800 Descending FlightAware ADS-B (KEYW)
Sat 06:23:53 PM 24.4365 -82.4953 183° South 423 487 28,500 -1,733 Descending FlightAware ADS-B (KEYW)
Sat 06:24:38 PM 24.3488 -82.5000 183° South 415 478 27,300 -1,667 Descending FlightAware ADS-B (KEYW)
Sat 06:25:23 PM 24.2621 -82.5047 183° South 409 471 26,000 -1,714 Descending FlightAware ADS-B (KEYW)
Sat 06:26:09 PM 24.1767 -82.5093 183° South 417 480 24,700 -2,133 Descending FlightAware ADS-B (KEYW)
Sat 06:26:53 PM 24.0887 -82.5140 183° South 423 487 22,800 -2,022 Descending FlightAware ADS-B (KEYW)
Sat 06:27:38 PM 24.0043 -82.5185 183° South 409 471 21,700 -1,648 Descending FlightAware ADS-B (KEYW)
Sat 06:28:24 PM 23.9176 -82.5261 187° South 401 461 20,300 -1,846 Descending FlightAware ADS-B (KEYW)
Sat 06:29:09 PM 23.8348 -82.5352 186° South 392 451 18,900 -2,000 Descending FlightAware ADS-B (KEYW)
Sat 06:29:54 PM 23.7528 -82.5435 186° South 392 451 17,300 -1,867 Descending FlightAware ADS-B (KEYW)
Sat 06:30:39 PM 23.6725 -82.5516 186° South 378 435 16,100 -1,733 Descending FlightAware ADS-B (KEYW)
Sat 06:31:24 PM 23.5946 -82.5594 186° South 374 430 14,700 -1,400 Descending FlightAware ADS-B (KEYW)
Sat 06:32:09 PM 23.5177 -82.5671 186° South 360 414 14,000 -533 Descending FlightAware ADS-B (KEYW)
Sat 06:32:54 PM 23.4471 -82.5742 186° South 323 372 13,900 -989 Descending FlightAware ADS-B (KEYW)
Sat 06:33:40 PM 23.3810 -82.5900 198° South 330 380 12,500 -2,308 Descending FlightAware ADS-B (KEYW)
Sat 06:34:25 PM 23.3136 -82.6128 198° South 339 390 10,400 -2,067 Descending FlightAware ADS-B (KEYW)
Sat 06:35:10 PM 23.2513 -82.6344 198° South 301 346 9,400 -1,627 Descending FlightAware ADS-B (KEYW)
Sat 06:35:24 PM 23.2321 -82.6407 196° South 298 343 8,800 -2,267 Descending FlightAware ADS-B (KEYW)
Sat 06:35:55 PM 23.1900 -82.6465 191° South 293 337 7,700 -2,132 Descending FlightAware ADS-B (KEYW)
Sat 06:36:40 PM 23.1325 -82.6633 196° South 287 330 6,100 -2,133 Descending FlightAware ADS-B (KEYW)
Sat 06:39:00 PM 22.9891 -82.4091 121° Southeast  Level Estimated
Sat 06:40:00 PM 22.9891 -82.4091 180° South  Level Estimated
Sat 06:41:00 PM 22.9891 -82.4091 180° South  Level Estimated
Sat 06:42:00 PM 22.9891 -82.4091 180° South  Level Estimated
Sat 06:43:00 PM 22.9891 -82.4091 180° South  Level Estimated
Sat 06:44:00 PM 22.9891 -82.4091 180° South  Level Estimated
Sat 06:45:00 PM 22.9891 -82.4091 180° South  Level Estimated
Sat 06:46:00 PM 22.9891 -82.4091 180° South  Level Estimated
Sat 06:47:00 PM 22.9891 -82.4091 180° South  Level Estimated
Sat 06:48:00 PM 22.9891 -82.4091 180° South  Level Estimated
Sat 06:49:00 PM 22.9891 -82.4091 180° South  Level Estimated
Sat 06:50:00 PM 22.9891 -82.4091 180° South  Level Estimated
Sat 06:51:00 PM 22.9891 -82.4091 180° South  Level Estimated
Sat 06:52:00 PM 22.9891 -82.4091 180° South  Level Estimated
Sat 06:53:00 PM 22.9891 -82.4091 180° South  Level Estimated
Sat 06:54:00 PM 22.9891 -82.4091 180° South  Level Estimated
Sat 06:55:00 PM 22.9891 -82.4091 180° South  Level Estimated
Sat 06:56:00 PM 22.9891 -82.4091 180° South  Level Estimated
Sat 06:57:00 PM 22.9891 -82.4091 180° South  Level Estimated
Sat 06:58:00 PM 22.9891 -82.4091 180° South  Level Estimated
Sat 06:59:00 PM 22.9891 -82.4091 180° South  Level Estimated

Login

Don't have an account? Register now (free) for customized features, flight alerts, and more!